sensor_id;sensor_type;location;lat;lon;timestamp;P1;durP1;ratioP1;P2;durP2;ratioP2
81298;SDS011;70766;53.170;18.160;2023-07-13T00:00:58;12.60;;;8.00;;
81298;SDS011;70766;53.170;18.160;2023-07-13T00:03:39;10.70;;;8.40;;
81298;SDS011;70766;53.170;18.160;2023-07-13T00:06:09;14.60;;;8.90;;
81298;SDS011;70766;53.170;18.160;2023-07-13T00:08:38;21.20;;;9.90;;
81298;SDS011;70766;53.170;18.160;2023-07-13T00:11:07;15.90;;;10.30;;
81298;SDS011;70766;53.170;18.160;2023-07-13T00:13:35;18.30;;;10.30;;
81298;SDS011;70766;53.170;18.160;2023-07-13T00:16:06;15.50;;;10.10;;
81298;SDS011;70766;53.170;18.160;2023-07-13T00:18:35;16.60;;;10.70;;
81298;SDS011;70766;53.170;18.160;2023-07-13T00:21:04;13.20;;;9.20;;
81298;SDS011;70766;53.170;18.160;2023-07-13T06:41:03;4.00;;;2.40;;
81298;SDS011;70766;53.170;18.160;2023-07-13T06:43:32;7.00;;;2.00;;
81298;SDS011;70766;53.170;18.160;2023-07-13T06:46:00;6.90;;;3.00;;
81298;SDS011;70766;53.170;18.160;2023-07-13T06:48:31;8.80;;;2.80;;
81298;SDS011;70766;53.170;18.160;2023-07-13T06:51:01;4.60;;;1.90;;
81298;SDS011;70766;53.170;18.160;2023-07-13T06:53:30;7.20;;;2.50;;
81298;SDS011;70766;53.170;18.160;2023-07-13T06:55:58;6.20;;;2.60;;
81298;SDS011;70766;53.170;18.160;2023-07-13T06:58:26;7.40;;;2.90;;
81298;SDS011;70766;53.170;18.160;2023-07-13T07:00:54;7.50;;;2.80;;
81298;SDS011;70766;53.170;18.160;2023-07-13T07:03:22;6.30;;;2.70;;
81298;SDS011;70766;53.170;18.160;2023-07-13T07:05:51;6.50;;;3.10;;
81298;SDS011;70766;53.170;18.160;2023-07-13T07:08:19;5.60;;;2.40;;
81298;SDS011;70766;53.170;18.160;2023-07-13T07:10:47;6.30;;;2.80;;
81298;SDS011;70766;53.170;18.160;2023-07-13T07:13:19;5.70;;;2.50;;
81298;SDS011;70766;53.170;18.160;2023-07-13T07:15:48;6.00;;;2.80;;
81298;SDS011;70766;53.170;18.160;2023-07-13T07:18:18;6.20;;;3.10;;
81298;SDS011;70766;53.170;18.160;2023-07-13T07:20:46;8.80;;;2.90;;
81298;SDS011;70766;53.170;18.160;2023-07-13T07:23:16;9.80;;;2.80;;
81298;SDS011;70766;53.170;18.160;2023-07-13T07:25:44;7.60;;;3.10;;
81298;SDS011;70766;53.170;18.160;2023-07-13T07:28:14;6.40;;;2.80;;
81298;SDS011;70766;53.170;18.160;2023-07-13T07:30:52;8.20;;;3.20;;
81298;SDS011;70766;53.170;18.160;2023-07-13T07:33:42;7.70;;;2.70;;
81298;SDS011;70766;53.170;18.160;2023-07-13T07:36:11;6.00;;;2.90;;
81298;SDS011;70766;53.170;18.160;2023-07-13T07:38:43;6.20;;;2.70;;
81298;SDS011;70766;53.170;18.160;2023-07-13T07:41:12;6.30;;;2.60;;
81298;SDS011;70766;53.170;18.160;2023-07-13T07:43:44;5.40;;;2.40;;
81298;SDS011;70766;53.170;18.160;2023-07-13T07:46:12;6.60;;;3.00;;
81298;SDS011;70766;53.170;18.160;2023-07-13T07:48:41;7.00;;;3.00;;
81298;SDS011;70766;53.170;18.160;2023-07-13T07:51:09;5.10;;;2.20;;
81298;SDS011;70766;53.170;18.160;2023-07-13T07:53:37;5.30;;;2.60;;
81298;SDS011;70766;53.170;18.160;2023-07-13T07:56:05;6.10;;;2.70;;
81298;SDS011;70766;53.170;18.160;2023-07-13T07:58:53;5.80;;;2.60;;
81298;SDS011;70766;53.170;18.160;2023-07-13T08:01:24;9.80;;;2.50;;
81298;SDS011;70766;53.170;18.160;2023-07-13T08:03:56;6.40;;;2.40;;
81298;SDS011;70766;53.170;18.160;2023-07-13T08:06:27;6.00;;;2.10;;
81298;SDS011;70766;53.170;18.160;2023-07-13T08:09:12;7.00;;;3.00;;
81298;SDS011;70766;53.170;18.160;2023-07-13T08:11:40;7.80;;;2.90;;
81298;SDS011;70766;53.170;18.160;2023-07-13T08:14:11;4.40;;;2.30;;
81298;SDS011;70766;53.170;18.160;2023-07-13T08:16:39;5.90;;;2.40;;
81298;SDS011;70766;53.170;18.160;2023-07-13T08:19:08;5.40;;;2.40;;
81298;SDS011;70766;53.170;18.160;2023-07-13T08:21:36;4.80;;;2.60;;
81298;SDS011;70766;53.170;18.160;2023-07-13T08:24:04;7.50;;;2.60;;
81298;SDS011;70766;53.170;18.160;2023-07-13T08:26:32;5.40;;;2.70;;
81298;SDS011;70766;53.170;18.160;2023-07-13T08:29:01;5.90;;;2.80;;
81298;SDS011;70766;53.170;18.160;2023-07-13T08:31:30;4.80;;;2.30;;
81298;SDS011;70766;53.170;18.160;2023-07-13T08:33:58;4.90;;;2.70;;
81298;SDS011;70766;53.170;18.160;2023-07-13T08:36:26;6.40;;;2.50;;
81298;SDS011;70766;53.170;18.160;2023-07-13T08:41:56;4.80;;;2.30;;
81298;SDS011;70766;53.170;18.160;2023-07-13T08:44:53;3.70;;;2.40;;
81298;SDS011;70766;53.170;18.160;2023-07-13T08:47:44;4.40;;;2.20;;
81298;SDS011;70766;53.170;18.160;2023-07-13T08:50:18;3.60;;;2.30;;
81298;SDS011;70766;53.170;18.160;2023-07-13T08:52:49;4.50;;;2.20;;
81298;SDS011;70766;53.170;18.160;2023-07-13T08:55:20;4.90;;;2.50;;
81298;SDS011;70766;53.170;18.160;2023-07-13T08:57:53;4.60;;;2.40;;
81298;SDS011;70766;53.170;18.160;2023-07-13T09:00:33;5.60;;;2.60;;
81298;SDS011;70766;53.170;18.160;2023-07-13T09:03:12;7.00;;;2.90;;
81298;SDS011;70766;53.170;18.160;2023-07-13T09:05:50;6.10;;;3.00;;
81298;SDS011;70766;53.170;18.160;2023-07-13T09:11:31;6.40;;;3.00;;
81298;SDS011;70766;53.170;18.160;2023-07-13T09:16:58;5.40;;;3.00;;
81298;SDS011;70766;53.170;18.160;2023-07-13T09:19:28;6.20;;;2.50;;
81298;SDS011;70766;53.170;18.160;2023-07-13T09:22:01;6.40;;;2.40;;
81298;SDS011;70766;53.170;18.160;2023-07-13T09:27:17;7.80;;;2.80;;
81298;SDS011;70766;53.170;18.160;2023-07-13T09:29:57;5.80;;;2.40;;
81298;SDS011;70766;53.170;18.160;2023-07-13T09:32:32;8.10;;;2.40;;
81298;SDS011;70766;53.170;18.160;2023-07-13T09:35:01;4.90;;;2.70;;
81298;SDS011;70766;53.170;18.160;2023-07-13T09:37:39;5.30;;;2.40;;
81298;SDS011;70766;53.170;18.160;2023-07-13T09:40:11;6.90;;;2.50;;
81298;SDS011;70766;53.170;18.160;2023-07-13T09:43:00;5.00;;;2.10;;
81298;SDS011;70766;53.170;18.160;2023-07-13T09:45:33;12.20;;;2.80;;
81298;SDS011;70766;53.170;18.160;2023-07-13T09:48:06;3.40;;;2.30;;
81298;SDS011;70766;53.170;18.160;2023-07-13T09:50:41;6.00;;;2.50;;
81298;SDS011;70766;53.170;18.160;2023-07-13T09:53:12;5.30;;;2.50;;
81298;SDS011;70766;53.170;18.160;2023-07-13T09:55:43;5.80;;;2.40;;
81298;SDS011;70766;53.170;18.160;2023-07-13T09:58:15;7.00;;;2.10;;
81298;SDS011;70766;53.170;18.160;2023-07-13T10:03:53;5.30;;;2.30;;
81298;SDS011;70766;53.170;18.160;2023-07-13T10:06:22;5.20;;;2.00;;
81298;SDS011;70766;53.170;18.160;2023-07-13T10:08:51;5.10;;;2.20;;
81298;SDS011;70766;53.170;18.160;2023-07-13T10:13:56;5.10;;;2.20;;
81298;SDS011;70766;53.170;18.160;2023-07-13T10:16:31;4.00;;;2.10;;
81298;SDS011;70766;53.170;18.160;2023-07-13T10:19:08;4.00;;;2.00;;
81298;SDS011;70766;53.170;18.160;2023-07-13T10:21:54;4.60;;;2.20;;
81298;SDS011;70766;53.170;18.160;2023-07-13T10:24:25;7.30;;;2.60;;
81298;SDS011;70766;53.170;18.160;2023-07-13T10:29:42;4.40;;;2.10;;
81298;SDS011;70766;53.170;18.160;2023-07-13T10:32:14;5.60;;;2.20;;
81298;SDS011;70766;53.170;18.160;2023-07-13T10:34:43;4.90;;;2.70;;
81298;SDS011;70766;53.170;18.160;2023-07-13T10:37:16;4.90;;;2.60;;
81298;SDS011;70766;53.170;18.160;2023-07-13T10:39:50;8.70;;;3.00;;
81298;SDS011;70766;53.170;18.160;2023-07-13T10:42:30;7.80;;;2.60;;
81298;SDS011;70766;53.170;18.160;2023-07-13T10:45:11;6.30;;;2.40;;
81298;SDS011;70766;53.170;18.160;2023-07-13T10:47:42;6.10;;;3.00;;
81298;SDS011;70766;53.170;18.160;2023-07-13T10:50:15;6.60;;;3.10;;
81298;SDS011;70766;53.170;18.160;2023-07-13T10:52:50;6.70;;;2.60;;
81298;SDS011;70766;53.170;18.160;2023-07-13T11:08:51;4.80;;;2.40;;
81298;SDS011;70766;53.170;18.160;2023-07-13T11:14:09;5.60;;;2.60;;
81298;SDS011;70766;53.170;18.160;2023-07-13T11:17:24;7.20;;;2.60;;
81298;SDS011;70766;53.170;18.160;2023-07-13T11:20:18;4.00;;;2.40;;
81298;SDS011;70766;53.170;18.160;2023-07-13T11:22:50;7.20;;;2.50;;
81298;SDS011;70766;53.170;18.160;2023-07-13T11:25:35;5.10;;;2.50;;
81298;SDS011;70766;53.170;18.160;2023-07-13T11:33:18;5.00;;;2.60;;
81298;SDS011;70766;53.170;18.160;2023-07-13T11:35:51;7.10;;;2.80;;
81298;SDS011;70766;53.170;18.160;2023-07-13T11:41:19;6.30;;;2.80;;
81298;SDS011;70766;53.170;18.160;2023-07-13T11:43:52;4.20;;;2.80;;
81298;SDS011;70766;53.170;18.160;2023-07-13T11:46:25;3.30;;;2.60;;
81298;SDS011;70766;53.170;18.160;2023-07-13T11:48:55;4.00;;;2.90;;
81298;SDS011;70766;53.170;18.160;2023-07-13T11:51:33;5.60;;;2.80;;
81298;SDS011;70766;53.170;18.160;2023-07-13T11:54:12;6.80;;;3.10;;
81298;SDS011;70766;53.170;18.160;2023-07-13T11:56:49;5.80;;;2.80;;
81298;SDS011;70766;53.170;18.160;2023-07-13T11:59:18;7.70;;;2.80;;
81298;SDS011;70766;53.170;18.160;2023-07-13T12:01:47;5.40;;;3.20;;
81298;SDS011;70766;53.170;18.160;2023-07-13T12:04:21;4.70;;;2.90;;
81298;SDS011;70766;53.170;18.160;2023-07-13T12:06:57;5.10;;;2.90;;
81298;SDS011;70766;53.170;18.160;2023-07-13T12:09:33;6.60;;;3.20;;
81298;SDS011;70766;53.170;18.160;2023-07-13T12:12:02;6.20;;;2.90;;
81298;SDS011;70766;53.170;18.160;2023-07-13T12:14:33;6.30;;;3.00;;
81298;SDS011;70766;53.170;18.160;2023-07-13T12:17:04;9.50;;;3.10;;
81298;SDS011;70766;53.170;18.160;2023-07-13T12:19:42;4.60;;;2.80;;
81298;SDS011;70766;53.170;18.160;2023-07-13T12:22:11;6.30;;;3.10;;
81298;SDS011;70766;53.170;18.160;2023-07-13T12:24:41;7.50;;;3.00;;
81298;SDS011;70766;53.170;18.160;2023-07-13T12:33:05;10.00;;;2.50;;
81298;SDS011;70766;53.170;18.160;2023-07-13T12:35:45;6.90;;;2.80;;
81298;SDS011;70766;53.170;18.160;2023-07-13T12:38:16;6.10;;;2.80;;
81298;SDS011;70766;53.170;18.160;2023-07-13T12:40:44;6.80;;;2.90;;
81298;SDS011;70766;53.170;18.160;2023-07-13T12:43:16;7.70;;;3.20;;
81298;SDS011;70766;53.170;18.160;2023-07-13T12:48:44;7.50;;;2.80;;
81298;SDS011;70766;53.170;18.160;2023-07-13T12:51:25;5.40;;;2.70;;
81298;SDS011;70766;53.170;18.160;2023-07-13T12:54:05;6.20;;;2.60;;
81298;SDS011;70766;53.170;18.160;2023-07-13T12:56:49;6.00;;;2.50;;
81298;SDS011;70766;53.170;18.160;2023-07-13T12:59:21;5.50;;;3.40;;
81298;SDS011;70766;53.170;18.160;2023-07-13T13:01:50;6.00;;;2.70;;
81298;SDS011;70766;53.170;18.160;2023-07-13T13:04:18;5.40;;;2.70;;
81298;SDS011;70766;53.170;18.160;2023-07-13T13:07:00;4.80;;;2.30;;
81298;SDS011;70766;53.170;18.160;2023-07-13T13:09:29;3.40;;;2.00;;
81298;SDS011;70766;53.170;18.160;2023-07-13T13:11:57;3.60;;;2.40;;
81298;SDS011;70766;53.170;18.160;2023-07-13T13:14:26;5.20;;;2.50;;
81298;SDS011;70766;53.170;18.160;2023-07-13T13:16:54;3.50;;;2.10;;
81298;SDS011;70766;53.170;18.160;2023-07-13T13:19:24;3.30;;;2.60;;
81298;SDS011;70766;53.170;18.160;2023-07-13T13:21:55;3.20;;;2.30;;
81298;SDS011;70766;53.170;18.160;2023-07-13T13:24:27;3.50;;;2.10;;
81298;SDS011;70766;53.170;18.160;2023-07-13T13:26:56;2.70;;;2.00;;
81298;SDS011;70766;53.170;18.160;2023-07-13T13:29:25;4.90;;;2.50;;
81298;SDS011;70766;53.170;18.160;2023-07-13T13:31:54;6.90;;;3.10;;
81298;SDS011;70766;53.170;18.160;2023-07-13T13:34:23;6.50;;;2.50;;
81298;SDS011;70766;53.170;18.160;2023-07-13T13:36:53;4.20;;;2.40;;
81298;SDS011;70766;53.170;18.160;2023-07-13T13:39:29;7.00;;;2.80;;
81298;SDS011;70766;53.170;18.160;2023-07-13T13:42:01;6.60;;;2.80;;
81298;SDS011;70766;53.170;18.160;2023-07-13T13:44:30;6.40;;;3.00;;
81298;SDS011;70766;53.170;18.160;2023-07-13T13:46:58;6.10;;;2.70;;
81298;SDS011;70766;53.170;18.160;2023-07-13T13:49:27;5.00;;;3.40;;
81298;SDS011;70766;53.170;18.160;2023-07-13T13:51:57;5.80;;;3.40;;
81298;SDS011;70766;53.170;18.160;2023-07-13T13:54:27;6.30;;;2.60;;
81298;SDS011;70766;53.170;18.160;2023-07-13T13:56:55;5.30;;;3.20;;
81298;SDS011;70766;53.170;18.160;2023-07-13T13:59:23;5.60;;;3.10;;
81298;SDS011;70766;53.170;18.160;2023-07-13T14:01:51;5.90;;;2.80;;
81298;SDS011;70766;53.170;18.160;2023-07-13T14:04:21;6.00;;;2.70;;
81298;SDS011;70766;53.170;18.160;2023-07-13T14:06:50;4.20;;;2.50;;
81298;SDS011;70766;53.170;18.160;2023-07-13T14:09:18;3.40;;;2.50;;
81298;SDS011;70766;53.170;18.160;2023-07-13T14:11:48;5.40;;;3.00;;
81298;SDS011;70766;53.170;18.160;2023-07-13T14:14:22;3.80;;;2.60;;
81298;SDS011;70766;53.170;18.160;2023-07-13T14:16:55;7.60;;;3.30;;
81298;SDS011;70766;53.170;18.160;2023-07-13T14:19:24;6.70;;;3.00;;
81298;SDS011;70766;53.170;18.160;2023-07-13T14:21:53;6.90;;;2.80;;
81298;SDS011;70766;53.170;18.160;2023-07-13T14:24:22;6.10;;;3.00;;
81298;SDS011;70766;53.170;18.160;2023-07-13T14:26:50;4.00;;;2.90;;
81298;SDS011;70766;53.170;18.160;2023-07-13T14:29:18;5.10;;;3.00;;
81298;SDS011;70766;53.170;18.160;2023-07-13T14:31:51;4.00;;;2.60;;
81298;SDS011;70766;53.170;18.160;2023-07-13T14:34:20;5.60;;;2.60;;
81298;SDS011;70766;53.170;18.160;2023-07-13T14:36:50;7.60;;;3.00;;
81298;SDS011;70766;53.170;18.160;2023-07-13T14:39:20;5.90;;;2.90;;
81298;SDS011;70766;53.170;18.160;2023-07-13T14:41:53;5.00;;;3.10;;
81298;SDS011;70766;53.170;18.160;2023-07-13T14:44:27;5.90;;;2.90;;
81298;SDS011;70766;53.170;18.160;2023-07-13T14:46:58;6.60;;;3.00;;
81298;SDS011;70766;53.170;18.160;2023-07-13T14:49:39;6.60;;;3.10;;
81298;SDS011;70766;53.170;18.160;2023-07-13T14:52:13;4.50;;;3.20;;
81298;SDS011;70766;53.170;18.160;2023-07-13T14:54:45;4.50;;;2.60;;
81298;SDS011;70766;53.170;18.160;2023-07-13T14:57:17;9.90;;;3.20;;
81298;SDS011;70766;53.170;18.160;2023-07-13T15:00:03;5.50;;;2.80;;
81298;SDS011;70766;53.170;18.160;2023-07-13T15:02:34;4.30;;;3.00;;
81298;SDS011;70766;53.170;18.160;2023-07-13T15:05:12;3.80;;;2.80;;
81298;SDS011;70766;53.170;18.160;2023-07-13T15:07:45;4.00;;;2.50;;
81298;SDS011;70766;53.170;18.160;2023-07-13T15:10:18;5.70;;;2.40;;
81298;SDS011;70766;53.170;18.160;2023-07-13T15:12:50;5.00;;;2.40;;
81298;SDS011;70766;53.170;18.160;2023-07-13T15:15:19;5.20;;;2.70;;
81298;SDS011;70766;53.170;18.160;2023-07-13T15:17:48;6.70;;;2.30;;
81298;SDS011;70766;53.170;18.160;2023-07-13T15:20:26;6.00;;;2.50;;
81298;SDS011;70766;53.170;18.160;2023-07-13T15:23:04;5.10;;;2.20;;
81298;SDS011;70766;53.170;18.160;2023-07-13T15:25:33;7.30;;;1.60;;
81298;SDS011;70766;53.170;18.160;2023-07-13T15:28:02;2.80;;;1.50;;
81298;SDS011;70766;53.170;18.160;2023-07-13T15:30:31;3.70;;;1.80;;
81298;SDS011;70766;53.170;18.160;2023-07-13T15:33:13;3.10;;;1.60;;
81298;SDS011;70766;53.170;18.160;2023-07-13T15:35:41;2.10;;;1.50;;
81298;SDS011;70766;53.170;18.160;2023-07-13T15:38:13;2.70;;;1.60;;
81298;SDS011;70766;53.170;18.160;2023-07-13T15:40:43;4.40;;;1.90;;
81298;SDS011;70766;53.170;18.160;2023-07-13T15:43:12;3.40;;;1.50;;
81298;SDS011;70766;53.170;18.160;2023-07-13T15:45:41;2.10;;;1.20;;
81298;SDS011;70766;53.170;18.160;2023-07-13T15:48:12;2.30;;;1.60;;
81298;SDS011;70766;53.170;18.160;2023-07-13T15:50:47;2.50;;;1.40;;
81298;SDS011;70766;53.170;18.160;2023-07-13T15:53:20;2.80;;;1.70;;
81298;SDS011;70766;53.170;18.160;2023-07-13T15:55:51;2.70;;;1.70;;
81298;SDS011;70766;53.170;18.160;2023-07-13T15:58:20;2.50;;;1.40;;
81298;SDS011;70766;53.170;18.160;2023-07-13T16:00:49;4.70;;;1.70;;
81298;SDS011;70766;53.170;18.160;2023-07-13T16:03:21;1.80;;;1.40;;
81298;SDS011;70766;53.170;18.160;2023-07-13T16:05:50;4.10;;;1.90;;
81298;SDS011;70766;53.170;18.160;2023-07-13T16:08:25;5.20;;;1.70;;
81298;SDS011;70766;53.170;18.160;2023-07-13T16:10:57;2.20;;;1.40;;
81298;SDS011;70766;53.170;18.160;2023-07-13T16:13:27;3.10;;;2.00;;
81298;SDS011;70766;53.170;18.160;2023-07-13T16:15:55;4.40;;;1.50;;
81298;SDS011;70766;53.170;18.160;2023-07-13T16:18:25;3.80;;;1.70;;
81298;SDS011;70766;53.170;18.160;2023-07-13T16:20:53;2.50;;;1.40;;
81298;SDS011;70766;53.170;18.160;2023-07-13T16:23:25;4.20;;;1.70;;
81298;SDS011;70766;53.170;18.160;2023-07-13T16:25:53;2.80;;;1.40;;
81298;SDS011;70766;53.170;18.160;2023-07-13T16:28:22;4.10;;;1.80;;
81298;SDS011;70766;53.170;18.160;2023-07-13T16:30:50;2.40;;;1.60;;
81298;SDS011;70766;53.170;18.160;2023-07-13T16:33:19;3.50;;;1.60;;
81298;SDS011;70766;53.170;18.160;2023-07-13T16:35:49;3.10;;;1.50;;
81298;SDS011;70766;53.170;18.160;2023-07-13T16:38:19;2.40;;;1.70;;
81298;SDS011;70766;53.170;18.160;2023-07-13T16:40:48;2.30;;;1.30;;
81298;SDS011;70766;53.170;18.160;2023-07-13T16:43:18;2.70;;;1.70;;
81298;SDS011;70766;53.170;18.160;2023-07-13T16:45:49;2.20;;;1.30;;
81298;SDS011;70766;53.170;18.160;2023-07-13T16:48:20;4.60;;;1.60;;
81298;SDS011;70766;53.170;18.160;2023-07-13T16:50:53;3.50;;;1.50;;
81298;SDS011;70766;53.170;18.160;2023-07-13T16:53:25;2.70;;;1.60;;
81298;SDS011;70766;53.170;18.160;2023-07-13T16:55:55;2.90;;;1.60;;
81298;SDS011;70766;53.170;18.160;2023-07-13T16:58:35;4.40;;;1.60;;
81298;SDS011;70766;53.170;18.160;2023-07-13T17:01:04;2.80;;;1.50;;
81298;SDS011;70766;53.170;18.160;2023-07-13T17:03:32;2.40;;;1.60;;
81298;SDS011;70766;53.170;18.160;2023-07-13T17:06:19;3.30;;;1.50;;
81298;SDS011;70766;53.170;18.160;2023-07-13T17:08:52;4.30;;;1.80;;
81298;SDS011;70766;53.170;18.160;2023-07-13T17:11:22;2.60;;;1.80;;
81298;SDS011;70766;53.170;18.160;2023-07-13T17:13:50;3.60;;;1.30;;
81298;SDS011;70766;53.170;18.160;2023-07-13T17:16:20;3.90;;;1.60;;
81298;SDS011;70766;53.170;18.160;2023-07-13T17:18:48;3.00;;;1.60;;
81298;SDS011;70766;53.170;18.160;2023-07-13T17:21:18;2.00;;;1.40;;
81298;SDS011;70766;53.170;18.160;2023-07-13T17:23:47;3.10;;;2.00;;
81298;SDS011;70766;53.170;18.160;2023-07-13T17:26:20;5.80;;;1.70;;
81298;SDS011;70766;53.170;18.160;2023-07-13T17:28:49;3.70;;;1.40;;
81298;SDS011;70766;53.170;18.160;2023-07-13T17:31:18;3.00;;;1.50;;
81298;SDS011;70766;53.170;18.160;2023-07-13T17:33:49;2.80;;;1.50;;
81298;SDS011;70766;53.170;18.160;2023-07-13T17:36:18;4.10;;;2.10;;
81298;SDS011;70766;53.170;18.160;2023-07-13T17:38:47;2.70;;;1.60;;
81298;SDS011;70766;53.170;18.160;2023-07-13T17:41:25;3.50;;;2.00;;
81298;SDS011;70766;53.170;18.160;2023-07-13T17:43:54;3.10;;;1.70;;
81298;SDS011;70766;53.170;18.160;2023-07-13T17:46:26;2.70;;;1.60;;
81298;SDS011;70766;53.170;18.160;2023-07-13T17:48:57;5.50;;;1.40;;
81298;SDS011;70766;53.170;18.160;2023-07-13T17:51:26;3.50;;;1.60;;
81298;SDS011;70766;53.170;18.160;2023-07-13T17:53:55;4.60;;;2.00;;
81298;SDS011;70766;53.170;18.160;2023-07-13T17:56:25;3.00;;;1.80;;
81298;SDS011;70766;53.170;18.160;2023-07-13T17:58:54;3.90;;;1.80;;
81298;SDS011;70766;53.170;18.160;2023-07-13T18:01:22;3.50;;;1.90;;
81298;SDS011;70766;53.170;18.160;2023-07-13T18:03:51;3.80;;;1.90;;
81298;SDS011;70766;53.170;18.160;2023-07-13T18:06:28;3.50;;;1.60;;
81298;SDS011;70766;53.170;18.160;2023-07-13T18:09:04;3.00;;;1.60;;
81298;SDS011;70766;53.170;18.160;2023-07-13T18:11:42;3.00;;;1.50;;
81298;SDS011;70766;53.170;18.160;2023-07-13T18:14:10;4.70;;;1.70;;
81298;SDS011;70766;53.170;18.160;2023-07-13T18:16:39;2.20;;;1.60;;
81298;SDS011;70766;53.170;18.160;2023-07-13T18:19:18;3.50;;;1.50;;
81298;SDS011;70766;53.170;18.160;2023-07-13T18:21:50;3.20;;;1.50;;
81298;SDS011;70766;53.170;18.160;2023-07-13T18:24:19;4.80;;;2.00;;
81298;SDS011;70766;53.170;18.160;2023-07-13T18:26:47;4.70;;;2.00;;
81298;SDS011;70766;53.170;18.160;2023-07-13T18:29:15;3.10;;;1.70;;
81298;SDS011;70766;53.170;18.160;2023-07-13T18:31:44;3.70;;;1.60;;
81298;SDS011;70766;53.170;18.160;2023-07-13T18:34:12;5.30;;;2.30;;
81298;SDS011;70766;53.170;18.160;2023-07-13T18:36:42;5.80;;;1.70;;
81298;SDS011;70766;53.170;18.160;2023-07-13T18:39:14;5.00;;;1.80;;
81298;SDS011;70766;53.170;18.160;2023-07-13T18:41:46;5.10;;;1.50;;
81298;SDS011;70766;53.170;18.160;2023-07-13T18:44:15;3.90;;;1.80;;
81298;SDS011;70766;53.170;18.160;2023-07-13T18:46:43;3.40;;;1.70;;
81298;SDS011;70766;53.170;18.160;2023-07-13T18:49:11;2.90;;;1.60;;
81298;SDS011;70766;53.170;18.160;2023-07-13T18:51:41;3.80;;;2.10;;
81298;SDS011;70766;53.170;18.160;2023-07-13T18:54:12;4.50;;;2.10;;
81298;SDS011;70766;53.170;18.160;2023-07-13T18:56:42;4.50;;;2.10;;
81298;SDS011;70766;53.170;18.160;2023-07-13T18:59:10;5.00;;;2.40;;
81298;SDS011;70766;53.170;18.160;2023-07-13T19:01:38;4.80;;;2.10;;
81298;SDS011;70766;53.170;18.160;2023-07-13T19:04:30;4.10;;;1.80;;
81298;SDS011;70766;53.170;18.160;2023-07-13T19:06:59;2.90;;;1.60;;
81298;SDS011;70766;53.170;18.160;2023-07-13T19:09:27;5.90;;;1.90;;
81298;SDS011;70766;53.170;18.160;2023-07-13T19:11:55;5.70;;;2.10;;
81298;SDS011;70766;53.170;18.160;2023-07-13T19:14:23;2.70;;;1.70;;
81298;SDS011;70766;53.170;18.160;2023-07-13T19:16:52;3.20;;;2.00;;
81298;SDS011;70766;53.170;18.160;2023-07-13T19:19:21;3.70;;;1.80;;
81298;SDS011;70766;53.170;18.160;2023-07-13T19:21:50;4.50;;;1.70;;
81298;SDS011;70766;53.170;18.160;2023-07-13T19:24:20;5.60;;;1.90;;
81298;SDS011;70766;53.170;18.160;2023-07-13T19:26:50;5.40;;;2.50;;
81298;SDS011;70766;53.170;18.160;2023-07-13T19:29:21;3.80;;;2.00;;
81298;SDS011;70766;53.170;18.160;2023-07-13T19:31:52;3.50;;;1.90;;
81298;SDS011;70766;53.170;18.160;2023-07-13T19:34:23;4.60;;;2.50;;
81298;SDS011;70766;53.170;18.160;2023-07-13T19:37:03;3.40;;;2.00;;
81298;SDS011;70766;53.170;18.160;2023-07-13T19:39:42;4.60;;;2.10;;
81298;SDS011;70766;53.170;18.160;2023-07-13T19:44:55;3.30;;;2.00;;
81298;SDS011;70766;53.170;18.160;2023-07-13T19:47:26;7.00;;;2.20;;
81298;SDS011;70766;53.170;18.160;2023-07-13T19:49:54;3.60;;;2.50;;
81298;SDS011;70766;53.170;18.160;2023-07-13T19:52:26;7.30;;;2.30;;
81298;SDS011;70766;53.170;18.160;2023-07-13T19:54:57;3.70;;;2.30;;
81298;SDS011;70766;53.170;18.160;2023-07-13T19:57:27;4.80;;;2.40;;
81298;SDS011;70766;53.170;18.160;2023-07-13T19:59:56;3.90;;;2.20;;
81298;SDS011;70766;53.170;18.160;2023-07-13T20:02:28;7.90;;;2.00;;
81298;SDS011;70766;53.170;18.160;2023-07-13T20:04:56;3.80;;;2.10;;
81298;SDS011;70766;53.170;18.160;2023-07-13T20:07:34;4.80;;;1.90;;
81298;SDS011;70766;53.170;18.160;2023-07-13T20:10:05;4.50;;;2.00;;
81298;SDS011;70766;53.170;18.160;2023-07-13T20:12:43;3.30;;;2.00;;
81298;SDS011;70766;53.170;18.160;2023-07-13T20:15:13;4.40;;;2.30;;
81298;SDS011;70766;53.170;18.160;2023-07-13T20:17:43;5.90;;;2.10;;
81298;SDS011;70766;53.170;18.160;2023-07-13T20:22:50;3.90;;;2.10;;
81298;SDS011;70766;53.170;18.160;2023-07-13T20:25:24;4.00;;;2.00;;
81298;SDS011;70766;53.170;18.160;2023-07-13T20:27:57;5.50;;;2.50;;
81298;SDS011;70766;53.170;18.160;2023-07-13T20:30:35;5.20;;;2.50;;
81298;SDS011;70766;53.170;18.160;2023-07-13T20:33:06;5.20;;;2.70;;
81298;SDS011;70766;53.170;18.160;2023-07-13T20:35:39;3.50;;;2.30;;
81298;SDS011;70766;53.170;18.160;2023-07-13T20:38:08;5.40;;;2.40;;
81298;SDS011;70766;53.170;18.160;2023-07-13T20:40:39;5.00;;;2.50;;
81298;SDS011;70766;53.170;18.160;2023-07-13T20:43:07;4.00;;;2.30;;
81298;SDS011;70766;53.170;18.160;2023-07-13T20:45:35;4.20;;;2.60;;
81298;SDS011;70766;53.170;18.160;2023-07-13T20:48:18;4.70;;;2.10;;
81298;SDS011;70766;53.170;18.160;2023-07-13T20:50:57;3.40;;;2.00;;
81298;SDS011;70766;53.170;18.160;2023-07-13T20:53:28;3.40;;;1.80;;
81298;SDS011;70766;53.170;18.160;2023-07-13T20:55:57;7.10;;;2.50;;
81298;SDS011;70766;53.170;18.160;2023-07-13T20:58:25;3.10;;;1.80;;
81298;SDS011;70766;53.170;18.160;2023-07-13T21:00:53;4.00;;;2.10;;
81298;SDS011;70766;53.170;18.160;2023-07-13T21:03:23;4.00;;;1.70;;
81298;SDS011;70766;53.170;18.160;2023-07-13T21:06:05;6.10;;;1.80;;
81298;SDS011;70766;53.170;18.160;2023-07-13T21:08:40;4.00;;;1.80;;
81298;SDS011;70766;53.170;18.160;2023-07-13T21:11:08;5.30;;;2.20;;
81298;SDS011;70766;53.170;18.160;2023-07-13T21:13:38;2.70;;;1.60;;
81298;SDS011;70766;53.170;18.160;2023-07-13T21:18:47;4.90;;;1.60;;
81298;SDS011;70766;53.170;18.160;2023-07-13T21:21:18;3.70;;;1.90;;
81298;SDS011;70766;53.170;18.160;2023-07-13T21:23:48;4.60;;;1.60;;
81298;SDS011;70766;53.170;18.160;2023-07-13T21:26:20;2.40;;;1.80;;
81298;SDS011;70766;53.170;18.160;2023-07-13T21:28:48;4.30;;;1.90;;
81298;SDS011;70766;53.170;18.160;2023-07-13T21:31:33;2.60;;;1.80;;
81298;SDS011;70766;53.170;18.160;2023-07-13T21:34:07;3.00;;;1.70;;
81298;SDS011;70766;53.170;18.160;2023-07-13T21:36:42;3.80;;;2.00;;
81298;SDS011;70766;53.170;18.160;2023-07-13T21:39:13;4.50;;;2.10;;
81298;SDS011;70766;53.170;18.160;2023-07-13T21:41:45;3.70;;;2.20;;
81298;SDS011;70766;53.170;18.160;2023-07-13T21:46:57;3.10;;;1.70;;
81298;SDS011;70766;53.170;18.160;2023-07-13T21:49:25;4.70;;;2.20;;
81298;SDS011;70766;53.170;18.160;2023-07-13T21:51:53;2.20;;;1.50;;
81298;SDS011;70766;53.170;18.160;2023-07-13T21:54:22;3.50;;;1.80;;
81298;SDS011;70766;53.170;18.160;2023-07-13T21:56:51;4.80;;;2.00;;
81298;SDS011;70766;53.170;18.160;2023-07-13T21:59:21;2.30;;;1.60;;
81298;SDS011;70766;53.170;18.160;2023-07-13T22:01:55;3.40;;;1.60;;
81298;SDS011;70766;53.170;18.160;2023-07-13T22:04:24;4.10;;;1.80;;
81298;SDS011;70766;53.170;18.160;2023-07-13T22:06:55;4.10;;;1.70;;
81298;SDS011;70766;53.170;18.160;2023-07-13T22:09:24;6.90;;;2.20;;
81298;SDS011;70766;53.170;18.160;2023-07-13T22:11:55;2.50;;;1.50;;
81298;SDS011;70766;53.170;18.160;2023-07-13T22:14:24;3.70;;;1.90;;
81298;SDS011;70766;53.170;18.160;2023-07-13T22:16:52;3.00;;;1.80;;
81298;SDS011;70766;53.170;18.160;2023-07-13T22:19:21;6.60;;;2.00;;
81298;SDS011;70766;53.170;18.160;2023-07-13T22:21:53;3.80;;;2.00;;